AirNav   Duncan Aviation - Near you to keep you flying
 
 1343 users online  

X65
(formerly 6TS3)
TXAerosport Aerodrome
Dorchester, Texas, USA

GOING TO DORCHESTER?


FAA INFORMATION EFFECTIVE 03 NOVEMBER 2022

Location

FAA Identifier: X65
Lat/Long: 33-32-10.6427N 096-40-49.5016W
33-32.177378N 096-40.825027W
33.5362896,-96.6804171
(estimated)
Elevation: 855 ft. / 260.6 m (surveyed)
From city: 1 mile NE of DORCHESTER, TX
Time zone: UTC -6 (UTC -5 during Daylight Saving Time)
Zip code: 75459

Airport Operations

Airport use: Open to the public
Activation date: 10/2005
Control tower: no
ARTCC: FORT WORTH CENTER
FSS: FORT WORTH FLIGHT SERVICE STATION
NOTAMs facility: FTW (NOTAM-D service available)
Attendance: MON-FRI 0800-1700
Wind indicator: yes
Segmented circle: yes

Airport Communications

CTAF: 122.9
WX AWOS-3 at GYI (11 nm N): 118.775 (903-786-7790)

Nearby radio navigation aids

VOR radial/distance  VOR name  Freq  Var
BYPr264/22.3BONHAM VORTAC114.6006E

 
NDB name  Hdg/Dist  Freq  Var  ID
DENISON176/17.434106EDNI -.. -. ..

Airport Services

Parking: hangars and tiedowns
Airframe service: MAJOR
FOR REPAIRS CALL 903-818-6961.
Powerplant service: MAJOR

Runway Information

Runway 17/35

Dimensions: 3200 x 100 ft. / 975 x 30 m
CNTR 70 FT MKD WITH CONES.
Surface: turf, in good condition
RUNWAY 17  RUNWAY 35
Latitude: 33-32.441018N33-31.913738N
Longitude: 096-40.826300W096-40.823752W
Elevation: 844.4 ft.847.0 ft.
Traffic pattern: leftleft
Obstructions: 22 ft. tree, 24 ft. from runway, 102 ft. right of centerline, 1:1 slope to clear14 ft. road, 125 ft. from runway, 8:1 slope to clear

Airport Ownership and Management from official FAA records

Ownership: Privately-owned
Owner: 99 INTERNATIONAL GROUP LLC
2200 NW GREEN OAKS BLVD
ARLINGTON, TX 76012
Phone 630-550-0266
Manager: NEILANS SHUNKWILER
637 BELDEN ROAD
CELINA, TX 75009
Phone 903-271-9660
MICHELE@FE3.COM

Airport Operational Statistics

Aircraft based on the field: 11
Single engine airplanes: 10
Multi engine airplanes: 1
    
Aircraft operations: avg 83/month *
50% transient general aviation
50% local general aviation
* for 12-month period ending 15 February 2013

Additional Remarks

FOR CD CTC FORT WORTH ARTCC AT 817-858-7584.

Instrument Procedures

There are no published instrument procedures at X65.

Some nearby airports with instrument procedures:

KSWI - Sherman Municipal Airport (7 nm NE)
KGYI - North Texas Regional Airport/Perrin Field (11 nm N)
KTKI - McKinney National Airport (22 nm S)
F00 - Jones Field Airport (25 nm E)
KGLE - Gainesville Municipal Airport (27 nm W)
 
Loc | Ops | Rwys | IFR | FBO | Links
Com | Nav | Svcs | Stats | Notes

City of Fort Worth
 
Area around X65 (TXAerosport Aerodrome)
 
Road maps at: MapQuest Bing Google
 
Aerial photo
WARNING: Photo may not be current or correct
Aerial photo of X65 (TXAerosport Aerodrome)
Special thanks to Peter "Pops" Everill and Kenneth Everill for the awesome aerial photo
Photo taken 27-Jul-2007

Do you have a better or more recent aerial photo of TXAerosport Aerodrome that you would like to share? If so, please send us your photo.

 
Sectional chart

 
Airport distance calculator
Flying to TXAerosport Aerodrome? Find the distance to fly.

From to X65

Sunrise and sunset
Times for 30-Nov-2022
 Local
(UTC-6)
 Zulu
(UTC)
Morning civil twilight06:4612:46
Sunrise07:1313:13
Sunset17:1823:18
Evening civil twilight17:4523:45

Current date and time
Zulu (UTC)  30-Nov-2022 14:33:52
Local (UTC-6)  30-Nov-2022 08:33:52
 
METAR
KGYI 
11nm N 
301350Z 35012KT 10SM CLR 00/M06 A3040
TAF
KDFW 
42nm SW 
301131Z 3012/0118 35014KT P6SM SKC FM301800 03009KT P6SM FEW250 FM010400 08007KT P6SM SCT250 FM011400 12008KT P6SM SCT250
KDAL 
42nm S 
301131Z 3012/0112 36013KT P6SM SKC FM301800 04008KT P6SM FEW250 FM010400 08006KT P6SM SCT250
KAFW 
47nm SW 
301131Z 3012/0112 35013KT P6SM SKC FM301800 03008KT P6SM FEW250 FM010400 07006KT P6SM SCT250
NOTAMs
Click for the latest NOTAMs
NOTAMs are issued by the DoD/FAA and will open in a separate window not controlled by AirNav.

 

 
 

Would you like to see your business listed on this page?

 If your business provides an interesting product or service to pilots, flight crews, aircraft, or users of the TXAerosport Aerodrome, you should consider listing it here.  To start the listing process, click on the button below
 
Add a business
 

Other Pages about TXAerosport Aerodrome

www.txaerosport.com
 
Update a link
 
Copyright © AirNav, LLC. All rights reserved. Privacy Policy  Contact